PWSweather.com
Personal Weather Stations
Station Observations
PENICUIKWS
PenicuikGB

PenicuikGB

Lat: 55.830932, Lon: -3.224533000000065

Elevation: 166

Station Type: Fine Offset

http://weather.penicuik.org

High Low Average
Temperature 52.7°F11.5°C 42.8°F6.0°C 49.1°F9.5°C
Dew Point 49.7°F9.8°C 34.4°F1.3°C 44.4°F6.9°C
Winds 12.9 mph 20.8 kmh 0.8 mph 1.3 kmh 6.0 mph SSW9.7 kmh SSW
Wind Gusts 19.0 mph30.6 kmh 2.2 mph3.5 kmh 10.0 mph16.1 kmh
Humidity 92% 70% 84%
Pressure 30.05 in1017.6 mb 29.86 in1011.2 mb -
Precipitation 0.17 in4.3 mm - -
Hour Temp Dew Point Humidity Winds Wind Gusts Pressure Precip Precip Rate Daily Precip Total
12:00 AM 44.1°F6.7°C 36.0°F2.2°C 73% 6.5 mph SSE10.5 kmh SSE 9.2 mph14.8 kmh 30.00 in1015.9 mb 0.00 in0.0 mm 0.00 in0.0 mm 0.00 in0.0 mm
12:15 AM 43.9°F6.6°C 35.8°F2.1°C 73% 7.1 mph S11.4 kmh S 11.4 mph18.3 kmh 30.00 in1015.9 mb 0.00 in0.0 mm 0.00 in0.0 mm 0.00 in0.0 mm
12:30 AM 43.9°F6.6°C 36.1°F2.3°C 74% 6.7 mph WNW10.8 kmh WNW 10.7 mph17.2 kmh 30.01 in1016.3 mb 0.00 in0.0 mm 0.00 in0.0 mm 0.00 in0.0 mm
12:45 AM 44.1°F6.7°C 36.0°F2.2°C 73% 9.1 mph SE14.6 kmh SE 12.1 mph19.5 kmh 30.02 in1016.6 mb 0.00 in0.0 mm 0.00 in0.0 mm 0.00 in0.0 mm
01:00 AM 44.1°F6.7°C 35.3°F1.8°C 71% 6.9 mph SSE11.1 kmh SSE 14.5 mph23.3 kmh 30.02 in1016.6 mb 0.00 in0.0 mm 0.00 in0.0 mm 0.00 in0.0 mm
01:15 AM 43.9°F6.6°C 35.4°F1.9°C 72% 6.1 mph SE9.8 kmh SE 9.2 mph14.8 kmh 30.03 in1016.9 mb 0.00 in0.0 mm 0.00 in0.0 mm 0.00 in0.0 mm
01:30 AM 43.9°F6.6°C 36.1°F2.3°C 74% 7.0 mph S11.3 kmh S 9.2 mph14.8 kmh 30.03 in1016.9 mb 0.00 in0.0 mm 0.00 in0.0 mm 0.00 in0.0 mm
01:45 AM 43.9°F6.6°C 35.4°F1.9°C 72% 6.0 mph WSW9.7 kmh WSW 13.0 mph20.9 kmh 30.02 in1016.6 mb 0.00 in0.0 mm 0.00 in0.0 mm 0.00 in0.0 mm
02:00 AM 43.9°F6.6°C 35.1°F1.7°C 71% 5.0 mph SSW8.0 kmh SSW 6.9 mph11.1 kmh 30.04 in1017.3 mb 0.00 in0.0 mm 0.00 in0.0 mm 0.00 in0.0 mm
02:15 AM 44.1°F6.7°C 34.9°F1.6°C 70% 5.9 mph SSW9.5 kmh SSW 9.8 mph15.8 kmh 30.04 in1017.3 mb 0.00 in0.0 mm 0.00 in0.0 mm 0.00 in0.0 mm
02:30 AM 43.9°F6.6°C 34.7°F1.5°C 70% 6.3 mph SW10.1 kmh SW 8.3 mph13.4 kmh 30.05 in1017.6 mb 0.00 in0.0 mm 0.00 in0.0 mm 0.00 in0.0 mm
02:45 AM 43.5°F6.4°C 34.4°F1.3°C 70% 4.1 mph SSW6.6 kmh SSW 8.3 mph13.4 kmh 30.05 in1017.6 mb 0.00 in0.0 mm 0.00 in0.0 mm 0.00 in0.0 mm
03:00 AM 43.5°F6.4°C 34.8°F1.6°C 71% 4.4 mph NW7.1 kmh NW 9.2 mph14.8 kmh 30.04 in1017.3 mb 0.00 in0.0 mm 0.00 in0.0 mm 0.00 in0.0 mm
03:15 AM 43.2°F6.2°C 34.8°F1.6°C 72% 4.3 mph SSE6.9 kmh SSE 7.6 mph12.2 kmh 30.04 in1017.3 mb 0.00 in0.0 mm 0.00 in0.0 mm 0.00 in0.0 mm
03:30 AM 43.5°F6.4°C 36.1°F2.3°C 75% 5.1 mph W8.2 kmh W 6.9 mph11.1 kmh 30.04 in1017.3 mb 0.00 in0.0 mm 0.00 in0.0 mm 0.00 in0.0 mm
04:15 AM 43.9°F6.6°C 37.8°F3.2°C 79% 3.6 mph NNW5.8 kmh NNW 7.6 mph12.2 kmh 30.04 in1017.3 mb 0.00 in0.0 mm 0.00 in0.0 mm 0.00 in0.0 mm
04:30 AM 44.1°F6.7°C 38.3°F3.5°C 80% 4.1 mph SW6.6 kmh SW 6.0 mph9.7 kmh 30.02 in1016.6 mb 0.00 in0.0 mm 0.00 in0.0 mm 0.00 in0.0 mm
04:45 AM 44.2°F6.8°C 38.8°F3.8°C 81% 5.0 mph SSW8.0 kmh SSW 7.6 mph12.2 kmh 30.02 in1016.6 mb 0.00 in0.0 mm 0.00 in0.0 mm 0.00 in0.0 mm
05:00 AM 44.4°F6.9°C 38.6°F3.7°C 80% 4.0 mph WNW6.4 kmh WNW 7.6 mph12.2 kmh 30.03 in1016.9 mb 0.00 in0.0 mm 0.00 in0.0 mm 0.00 in0.0 mm
05:15 AM 44.4°F6.9°C 38.6°F3.7°C 80% 3.2 mph SW5.1 kmh SW 5.4 mph8.7 kmh 30.04 in1017.3 mb 0.00 in0.0 mm 0.00 in0.0 mm 0.00 in0.0 mm
05:30 AM 44.2°F6.8°C 38.5°F3.6°C 80% 2.5 mph NW4.0 kmh NW 3.1 mph5.0 kmh 30.03 in1016.9 mb 0.00 in0.0 mm 0.00 in0.0 mm 0.00 in0.0 mm
06:00 AM 43.7°F6.5°C 38.9°F3.8°C 83% 3.1 mph WSW5.0 kmh WSW 6.0 mph9.7 kmh 30.03 in1016.9 mb 0.00 in0.0 mm 0.00 in0.0 mm 0.00 in0.0 mm
06:30 AM 43.3°F6.3°C 39.1°F3.9°C 85% 2.2 mph NW3.5 kmh NW 3.8 mph6.1 kmh 30.01 in1016.3 mb 0.00 in0.0 mm 0.00 in0.0 mm 0.00 in0.0 mm
06:45 AM 43.2°F6.2°C 39.3°F4.1°C 86% 2.1 mph SSE3.4 kmh SSE 4.5 mph7.2 kmh 30.00 in1015.9 mb 0.00 in0.0 mm 0.00 in0.0 mm 0.00 in0.0 mm
07:00 AM 43.0°F6.1°C 39.4°F4.1°C 87% 1.9 mph WSW3.1 kmh WSW 4.5 mph7.2 kmh 30.01 in1016.3 mb 0.00 in0.0 mm 0.00 in0.0 mm 0.00 in0.0 mm
07:15 AM 43.0°F6.1°C 39.7°F4.3°C 88% 2.2 mph S3.5 kmh S 6.0 mph9.7 kmh 30.01 in1016.3 mb 0.00 in0.0 mm 0.00 in0.0 mm 0.00 in0.0 mm
07:30 AM 42.8°F6.0°C 39.5°F4.2°C 88% 1.0 mph WSW1.6 kmh WSW 2.2 mph3.5 kmh 29.99 in1015.6 mb 0.01 in0.3 mm 0.04 in1.0 mm 0.01 in0.3 mm
07:45 AM 43.0°F6.1°C 40.0°F4.4°C 89% 2.2 mph W3.5 kmh W 6.0 mph9.7 kmh 29.98 in1015.2 mb 0.01 in0.3 mm 0.00 in0.0 mm 0.01 in0.3 mm
08:15 AM 43.5°F6.4°C 40.8°F4.9°C 90% 0.8 mph NW1.3 kmh NW 2.2 mph3.5 kmh 29.98 in1015.2 mb 0.01 in0.3 mm 0.00 in0.0 mm 0.01 in0.3 mm
08:30 AM 44.6°F7.0°C 41.9°F5.5°C 90% 1.2 mph NNW1.9 kmh NNW 2.2 mph3.5 kmh 29.99 in1015.6 mb 0.01 in0.3 mm 0.00 in0.0 mm 0.02 in0.5 mm
08:45 AM 46.9°F8.3°C 44.5°F6.9°C 91% 2.4 mph SW3.9 kmh SW 4.5 mph7.2 kmh 29.99 in1015.6 mb 0.01 in0.3 mm 0.00 in0.0 mm 0.02 in0.5 mm
09:00 AM 49.8°F9.9°C 47.6°F8.7°C 92% 3.6 mph S5.8 kmh S 6.0 mph9.7 kmh 29.99 in1015.6 mb 0.02 in0.5 mm 0.01 in0.3 mm 0.04 in1.0 mm
09:15 AM 50.4°F10.2°C 48.1°F8.9°C 92% 3.6 mph SSW5.8 kmh SSW 7.6 mph12.2 kmh 29.99 in1015.6 mb 0.02 in0.5 mm 0.00 in0.0 mm 0.04 in1.0 mm
09:30 AM 50.9°F10.5°C 48.7°F9.3°C 92% 3.6 mph WSW5.8 kmh WSW 6.9 mph11.1 kmh 29.99 in1015.6 mb 0.01 in0.3 mm 0.00 in0.0 mm 0.04 in1.0 mm
09:45 AM 51.3°F10.7°C 49.0°F9.4°C 92% 4.0 mph W6.4 kmh W 6.0 mph9.7 kmh 30.00 in1015.9 mb 0.02 in0.5 mm 0.04 in1.0 mm 0.05 in1.3 mm
10:00 AM 51.8°F11.0°C 49.3°F9.6°C 91% 3.5 mph SW5.6 kmh SW 5.4 mph8.7 kmh 30.01 in1016.3 mb 0.02 in0.5 mm 0.00 in0.0 mm 0.06 in1.5 mm
10:15 AM 52.0°F11.1°C 49.4°F9.7°C 91% 4.8 mph SW7.7 kmh SW 8.3 mph13.4 kmh 30.01 in1016.3 mb 0.02 in0.5 mm 0.00 in0.0 mm 0.06 in1.5 mm
10:30 AM 52.0°F11.1°C 49.4°F9.7°C 91% 5.3 mph SSW8.5 kmh SSW 9.8 mph15.8 kmh 30.02 in1016.6 mb 0.04 in1.0 mm 0.08 in2.0 mm 0.07 in1.8 mm
10:45 AM 52.2°F11.2°C 49.3°F9.6°C 90% 4.0 mph E6.4 kmh E 7.6 mph12.2 kmh 30.02 in1016.6 mb 0.02 in0.5 mm 0.00 in0.0 mm 0.07 in1.8 mm
11:00 AM 52.3°F11.3°C 49.5°F9.7°C 90% 5.1 mph SSW8.2 kmh SSW 8.3 mph13.4 kmh 30.03 in1016.9 mb 0.02 in0.5 mm 0.00 in0.0 mm 0.08 in2.0 mm
11:15 AM 52.5°F11.4°C 49.7°F9.8°C 90% 5.7 mph SSW9.2 kmh SSW 11.4 mph18.3 kmh 30.03 in1016.9 mb 0.02 in0.5 mm 0.00 in0.0 mm 0.08 in2.0 mm
11:30 AM 52.5°F11.4°C 49.4°F9.7°C 89% 5.2 mph NE8.4 kmh NE 8.3 mph13.4 kmh 30.04 in1017.3 mb 0.02 in0.5 mm 0.00 in0.0 mm 0.09 in2.3 mm
11:45 AM 52.5°F11.4°C 49.4°F9.7°C 89% 3.5 mph S5.6 kmh S 6.0 mph9.7 kmh 30.04 in1017.3 mb 0.02 in0.5 mm 0.00 in0.0 mm 0.09 in2.3 mm
12:00 PM 52.7°F11.5°C 49.6°F9.8°C 89% 5.1 mph SSW8.2 kmh SSW 7.6 mph12.2 kmh 30.04 in1017.3 mb 0.02 in0.5 mm 0.00 in0.0 mm 0.11 in2.8 mm
12:15 PM 52.7°F11.5°C 49.6°F9.8°C 89% 4.8 mph WSW7.7 kmh WSW 6.9 mph11.1 kmh 30.04 in1017.3 mb 0.02 in0.5 mm 0.00 in0.0 mm 0.11 in2.8 mm
12:30 PM 52.7°F11.5°C 49.6°F9.8°C 89% 4.4 mph SSW7.1 kmh SSW 6.0 mph9.7 kmh 30.04 in1017.3 mb 0.01 in0.3 mm 0.00 in0.0 mm 0.11 in2.8 mm
12:45 PM 52.7°F11.5°C 49.6°F9.8°C 89% 5.8 mph SW9.3 kmh SW 9.8 mph15.8 kmh 30.04 in1017.3 mb 0.01 in0.3 mm 0.00 in0.0 mm 0.11 in2.8 mm
01:00 PM 52.7°F11.5°C 49.3°F9.6°C 88% 6.4 mph S10.3 kmh S 9.8 mph15.8 kmh 30.04 in1017.3 mb 0.01 in0.3 mm 0.00 in0.0 mm 0.12 in3.0 mm
01:15 PM 52.7°F11.5°C 49.3°F9.6°C 88% 5.3 mph N8.5 kmh N 8.3 mph13.4 kmh 30.04 in1017.3 mb 0.01 in0.3 mm 0.00 in0.0 mm 0.12 in3.0 mm
01:30 PM 52.7°F11.5°C 49.3°F9.6°C 88% 5.5 mph S8.9 kmh S 8.3 mph13.4 kmh 30.03 in1016.9 mb 0.01 in0.3 mm 0.00 in0.0 mm 0.12 in3.0 mm
01:45 PM 52.7°F11.5°C 49.3°F9.6°C 88% 5.2 mph S8.4 kmh S 7.6 mph12.2 kmh 30.03 in1016.9 mb 0.01 in0.3 mm 0.00 in0.0 mm 0.12 in3.0 mm
02:00 PM 52.7°F11.5°C 49.3°F9.6°C 88% 5.7 mph S9.2 kmh S 7.6 mph12.2 kmh 30.04 in1017.3 mb 0.00 in0.0 mm 0.00 in0.0 mm 0.12 in3.0 mm
02:15 PM 52.7°F11.5°C 48.9°F9.4°C 87% 5.6 mph SSE9.0 kmh SSE 9.2 mph14.8 kmh 30.02 in1016.6 mb 0.00 in0.0 mm 0.00 in0.0 mm 0.12 in3.0 mm
02:30 PM 52.7°F11.5°C 48.3°F9.1°C 85% 6.3 mph S10.1 kmh S 9.8 mph15.8 kmh 30.02 in1016.6 mb 0.00 in0.0 mm 0.00 in0.0 mm 0.12 in3.0 mm
02:45 PM 52.7°F11.5°C 48.0°F8.9°C 84% 8.6 mph WSW13.8 kmh WSW 19.0 mph30.6 kmh 30.01 in1016.3 mb 0.00 in0.0 mm 0.00 in0.0 mm 0.12 in3.0 mm
03:00 PM 52.7°F11.5°C 48.3°F9.1°C 85% 7.5 mph SSE12.1 kmh SSE 9.8 mph15.8 kmh 30.02 in1016.6 mb 0.00 in0.0 mm 0.00 in0.0 mm 0.12 in3.0 mm
03:15 PM 52.7°F11.5°C 48.6°F9.2°C 86% 6.5 mph SW10.5 kmh SW 9.2 mph14.8 kmh 30.02 in1016.6 mb 0.00 in0.0 mm 0.00 in0.0 mm 0.12 in3.0 mm
03:30 PM 52.5°F11.4°C 48.8°F9.3°C 87% 5.6 mph W9.0 kmh W 11.4 mph18.3 kmh 30.00 in1015.9 mb 0.00 in0.0 mm 0.00 in0.0 mm 0.12 in3.0 mm
03:45 PM 52.5°F11.4°C 49.1°F9.5°C 88% 7.6 mph SW12.2 kmh SW 15.2 mph24.5 kmh 29.99 in1015.6 mb 0.00 in0.0 mm 0.00 in0.0 mm 0.12 in3.0 mm
04:00 PM 52.5°F11.4°C 49.4°F9.7°C 89% 5.5 mph E8.9 kmh E 10.7 mph17.2 kmh 29.98 in1015.2 mb 0.00 in0.0 mm 0.00 in0.0 mm 0.12 in3.0 mm
04:15 PM 52.5°F11.4°C 49.4°F9.7°C 89% 6.6 mph NNE10.6 kmh NNE 9.2 mph14.8 kmh 29.98 in1015.2 mb 0.01 in0.3 mm 0.04 in1.0 mm 0.13 in3.3 mm
04:45 PM 52.7°F11.5°C 49.6°F9.8°C 89% 7.8 mph S12.6 kmh S 13.0 mph20.9 kmh 29.98 in1015.2 mb 0.01 in0.3 mm 0.00 in0.0 mm 0.13 in3.3 mm
05:00 PM 52.7°F11.5°C 49.6°F9.8°C 89% 7.8 mph N12.6 kmh N 13.0 mph20.9 kmh 29.98 in1015.2 mb 0.01 in0.3 mm 0.00 in0.0 mm 0.13 in3.3 mm
05:15 PM 52.7°F11.5°C 48.9°F9.4°C 87% 9.5 mph SW15.3 kmh SW 15.9 mph25.6 kmh 29.98 in1015.2 mb 0.00 in0.0 mm 0.00 in0.0 mm 0.13 in3.3 mm
05:30 PM 52.7°F11.5°C 48.6°F9.2°C 86% 7.0 mph S11.3 kmh S 9.8 mph15.8 kmh 29.98 in1015.2 mb 0.00 in0.0 mm 0.00 in0.0 mm 0.13 in3.3 mm
05:45 PM 52.7°F11.5°C 48.6°F9.2°C 86% 8.7 mph SSW14.0 kmh SSW 13.0 mph20.9 kmh 29.97 in1014.9 mb 0.00 in0.0 mm 0.00 in0.0 mm 0.13 in3.3 mm
06:15 PM 52.7°F11.5°C 48.3°F9.1°C 85% 7.4 mph NE11.9 kmh NE 10.7 mph17.2 kmh 29.97 in1014.9 mb 0.00 in0.0 mm 0.00 in0.0 mm 0.13 in3.3 mm
06:30 PM 52.5°F11.4°C 48.1°F8.9°C 85% 7.7 mph SW12.4 kmh SW 15.9 mph25.6 kmh 29.97 in1014.9 mb 0.00 in0.0 mm 0.00 in0.0 mm 0.13 in3.3 mm
06:45 PM 52.5°F11.4°C 48.5°F9.2°C 86% 8.7 mph NW14.0 kmh NW 13.0 mph20.9 kmh 29.97 in1014.9 mb 0.00 in0.0 mm 0.00 in0.0 mm 0.13 in3.3 mm
07:15 PM 52.3°F11.3°C 48.6°F9.2°C 87% 7.7 mph SW12.4 kmh SW 10.7 mph17.2 kmh 29.97 in1014.9 mb 0.01 in0.3 mm 0.02 in0.5 mm 0.14 in3.6 mm
07:30 PM 52.5°F11.4°C 47.8°F8.8°C 84% 9.8 mph SW15.8 kmh SW 13.6 mph21.9 kmh 29.96 in1014.6 mb 0.01 in0.3 mm 0.00 in0.0 mm 0.14 in3.6 mm
07:45 PM 52.2°F11.2°C 47.2°F8.4°C 83% 10.0 mph E16.1 kmh E 12.1 mph19.5 kmh 29.95 in1014.2 mb 0.01 in0.3 mm 0.00 in0.0 mm 0.14 in3.6 mm
08:15 PM 52.3°F11.3°C 47.0°F8.3°C 82% 6.2 mph WSW10.0 kmh WSW 9.8 mph15.8 kmh 29.94 in1013.9 mb 0.00 in0.0 mm 0.00 in0.0 mm 0.14 in3.6 mm
08:45 PM 51.8°F11.0°C 46.8°F8.2°C 83% 8.5 mph SW13.7 kmh SW 13.0 mph20.9 kmh 29.93 in1013.5 mb 0.00 in0.0 mm 0.00 in0.0 mm 0.14 in3.6 mm
09:15 PM 51.8°F11.0°C 46.8°F8.2°C 83% 9.5 mph N15.3 kmh N 14.5 mph23.3 kmh 29.92 in1013.2 mb 0.00 in0.0 mm 0.00 in0.0 mm 0.14 in3.6 mm
09:30 PM 52.0°F11.1°C 46.3°F7.9°C 81% 8.6 mph ENE13.8 kmh ENE 13.0 mph20.9 kmh 29.91 in1012.9 mb 0.00 in0.0 mm 0.00 in0.0 mm 0.14 in3.6 mm
09:45 PM 52.0°F11.1°C 46.3°F7.9°C 81% 12.9 mph WNW20.8 kmh WNW 19.0 mph30.6 kmh 29.89 in1012.2 mb 0.00 in0.0 mm 0.00 in0.0 mm 0.14 in3.6 mm
10:00 PM 51.8°F11.0°C 45.8°F7.7°C 80% 10.3 mph SSE16.6 kmh SSE 13.0 mph20.9 kmh 29.89 in1012.2 mb 0.00 in0.0 mm 0.00 in0.0 mm 0.14 in3.6 mm
10:30 PM 52.2°F11.2°C 45.9°F7.7°C 79% 8.8 mph N14.2 kmh N 19.0 mph30.6 kmh 29.86 in1011.2 mb 0.00 in0.0 mm 0.00 in0.0 mm 0.14 in3.6 mm
10:45 PM 52.2°F11.2°C 45.9°F7.7°C 79% 6.4 mph NW10.3 kmh NW 13.6 mph21.9 kmh 29.86 in1011.2 mb 0.00 in0.0 mm 0.00 in0.0 mm 0.14 in3.6 mm
11:00 PM 52.2°F11.2°C 45.9°F7.7°C 79% 6.6 mph SSE10.6 kmh SSE 12.1 mph19.5 kmh 29.86 in1011.2 mb 0.00 in0.0 mm 0.00 in0.0 mm 0.14 in3.6 mm
11:15 PM 52.0°F11.1°C 45.7°F7.6°C 79% 9.9 mph NNE15.9 kmh NNE 15.9 mph25.6 kmh 29.86 in1011.2 mb 0.00 in0.0 mm 0.00 in0.0 mm 0.14 in3.6 mm
11:30 PM 51.6°F10.9°C 46.3°F7.9°C 82% 9.4 mph NW15.1 kmh NW 15.2 mph24.5 kmh 29.87 in1011.5 mb 0.00 in0.0 mm 0.00 in0.0 mm 0.14 in3.6 mm
11:45 PM 50.7°F10.4°C 46.4°F8.0°C 85% 8.2 mph W13.2 kmh W 12.1 mph19.5 kmh 29.86 in1011.2 mb 0.02 in0.5 mm 0.08 in2.0 mm 0.17 in4.3 mm